sensor_id;sensor_type;location;lat;lon;timestamp;P1;durP1;ratioP1;P2;durP2;ratioP2
12585;SDS011;6358;50.760;0.282;2023-07-08T00:00:12;5.07;;;3.63;;
12585;SDS011;6358;50.760;0.282;2023-07-08T00:02:39;5.13;;;3.70;;
12585;SDS011;6358;50.760;0.282;2023-07-08T00:05:07;4.82;;;3.75;;
12585;SDS011;6358;50.760;0.282;2023-07-08T00:07:33;3.78;;;3.47;;
12585;SDS011;6358;50.760;0.282;2023-07-08T00:09:59;4.50;;;3.80;;
12585;SDS011;6358;50.760;0.282;2023-07-08T00:12:25;4.35;;;3.60;;
12585;SDS011;6358;50.760;0.282;2023-07-08T00:14:51;5.13;;;3.70;;
12585;SDS011;6358;50.760;0.282;2023-07-08T00:17:17;4.05;;;3.65;;
12585;SDS011;6358;50.760;0.282;2023-07-08T00:19:43;5.22;;;4.05;;
12585;SDS011;6358;50.760;0.282;2023-07-08T00:22:13;5.78;;;3.80;;
12585;SDS011;6358;50.760;0.282;2023-07-08T00:24:41;4.82;;;3.88;;
12585;SDS011;6358;50.760;0.282;2023-07-08T00:27:11;4.50;;;3.65;;
12585;SDS011;6358;50.760;0.282;2023-07-08T00:29:38;4.88;;;3.80;;
12585;SDS011;6358;50.760;0.282;2023-07-08T00:32:14;5.10;;;3.60;;
12585;SDS011;6358;50.760;0.282;2023-07-08T00:34:40;7.82;;;3.95;;
12585;SDS011;6358;50.760;0.282;2023-07-08T00:37:09;4.75;;;3.85;;
12585;SDS011;6358;50.760;0.282;2023-07-08T00:39:36;5.22;;;3.90;;
12585;SDS011;6358;50.760;0.282;2023-07-08T00:42:03;3.75;;;3.45;;
12585;SDS011;6358;50.760;0.282;2023-07-08T00:44:30;4.38;;;3.90;;
12585;SDS011;6358;50.760;0.282;2023-07-08T00:47:05;4.15;;;3.75;;
12585;SDS011;6358;50.760;0.282;2023-07-08T00:49:34;3.50;;;3.20;;
12585;SDS011;6358;50.760;0.282;2023-07-08T00:54:51;3.53;;;3.22;;
12585;SDS011;6358;50.760;0.282;2023-07-08T00:57:17;3.80;;;3.47;;
12585;SDS011;6358;50.760;0.282;2023-07-08T00:59:55;4.72;;;3.90;;
12585;SDS011;6358;50.760;0.282;2023-07-08T01:02:22;4.82;;;3.78;;
12585;SDS011;6358;50.760;0.282;2023-07-08T01:04:53;5.10;;;3.70;;
12585;SDS011;6358;50.760;0.282;2023-07-08T01:07:22;4.70;;;3.55;;
12585;SDS011;6358;50.760;0.282;2023-07-08T01:09:52;3.92;;;3.53;;
12585;SDS011;6358;50.760;0.282;2023-07-08T01:12:21;4.35;;;3.95;;
12585;SDS011;6358;50.760;0.282;2023-07-08T01:14:49;3.92;;;3.40;;
12585;SDS011;6358;50.760;0.282;2023-07-08T01:17:18;5.00;;;3.70;;
12585;SDS011;6358;50.760;0.282;2023-07-08T01:19:46;5.95;;;3.50;;
12585;SDS011;6358;50.760;0.282;2023-07-08T01:22:12;4.45;;;3.67;;
12585;SDS011;6358;50.760;0.282;2023-07-08T01:24:39;4.55;;;3.80;;
12585;SDS011;6358;50.760;0.282;2023-07-08T01:27:10;4.50;;;4.10;;
12585;SDS011;6358;50.760;0.282;2023-07-08T01:29:37;3.60;;;3.28;;
12585;SDS011;6358;50.760;0.282;2023-07-08T01:32:03;4.10;;;3.70;;
12585;SDS011;6358;50.760;0.282;2023-07-08T01:34:33;4.25;;;3.85;;
12585;SDS011;6358;50.760;0.282;2023-07-08T01:36:59;4.38;;;3.85;;
12585;SDS011;6358;50.760;0.282;2023-07-08T01:39:28;4.65;;;3.80;;
12585;SDS011;6358;50.760;0.282;2023-07-08T01:41:55;5.70;;;3.90;;
12585;SDS011;6358;50.760;0.282;2023-07-08T01:44:22;4.60;;;3.97;;
12585;SDS011;6358;50.760;0.282;2023-07-08T01:46:49;6.03;;;3.80;;
12585;SDS011;6358;50.760;0.282;2023-07-08T01:49:16;4.55;;;3.80;;
12585;SDS011;6358;50.760;0.282;2023-07-08T01:51:42;4.97;;;3.70;;
12585;SDS011;6358;50.760;0.282;2023-07-08T01:54:08;4.63;;;3.67;;
12585;SDS011;6358;50.760;0.282;2023-07-08T01:56:34;4.40;;;4.00;;
12585;SDS011;6358;50.760;0.282;2023-07-08T01:59:00;6.15;;;3.50;;
12585;SDS011;6358;50.760;0.282;2023-07-08T02:01:27;4.50;;;3.67;;
12585;SDS011;6358;50.760;0.282;2023-07-08T02:03:53;4.07;;;3.67;;
12585;SDS011;6358;50.760;0.282;2023-07-08T02:06:19;4.93;;;3.67;;
12585;SDS011;6358;50.760;0.282;2023-07-08T02:08:45;5.32;;;3.75;;
12585;SDS011;6358;50.760;0.282;2023-07-08T02:11:11;7.30;;;3.95;;
12585;SDS011;6358;50.760;0.282;2023-07-08T02:13:37;5.60;;;3.40;;
12585;SDS011;6358;50.760;0.282;2023-07-08T02:16:05;3.95;;;3.60;;
12585;SDS011;6358;50.760;0.282;2023-07-08T02:18:31;4.57;;;3.72;;
12585;SDS011;6358;50.760;0.282;2023-07-08T02:20:58;4.13;;;3.45;;
12585;SDS011;6358;50.760;0.282;2023-07-08T02:23:27;4.80;;;3.50;;
12585;SDS011;6358;50.760;0.282;2023-07-08T02:25:53;5.22;;;3.50;;
12585;SDS011;6358;50.760;0.282;2023-07-08T02:28:20;4.13;;;3.50;;
12585;SDS011;6358;50.760;0.282;2023-07-08T02:30:46;3.97;;;3.60;;
12585;SDS011;6358;50.760;0.282;2023-07-08T02:33:13;4.18;;;3.70;;
12585;SDS011;6358;50.760;0.282;2023-07-08T02:35:39;3.72;;;3.42;;
12585;SDS011;6358;50.760;0.282;2023-07-08T02:38:05;5.20;;;3.63;;
12585;SDS011;6358;50.760;0.282;2023-07-08T02:40:31;4.22;;;3.55;;
12585;SDS011;6358;50.760;0.282;2023-07-08T02:42:58;3.80;;;3.33;;
12585;SDS011;6358;50.760;0.282;2023-07-08T02:45:24;4.10;;;3.70;;
12585;SDS011;6358;50.760;0.282;2023-07-08T02:47:50;3.97;;;3.50;;
12585;SDS011;6358;50.760;0.282;2023-07-08T02:50:16;6.03;;;3.60;;
12585;SDS011;6358;50.760;0.282;2023-07-08T02:52:43;4.60;;;3.45;;
12585;SDS011;6358;50.760;0.282;2023-07-08T02:55:10;5.57;;;3.90;;
12585;SDS011;6358;50.760;0.282;2023-07-08T02:57:36;4.00;;;3.60;;
12585;SDS011;6358;50.760;0.282;2023-07-08T03:00:02;3.65;;;3.35;;
12585;SDS011;6358;50.760;0.282;2023-07-08T03:02:31;5.13;;;3.63;;
12585;SDS011;6358;50.760;0.282;2023-07-08T03:04:58;3.67;;;3.30;;
12585;SDS011;6358;50.760;0.282;2023-07-08T03:07:25;3.65;;;3.33;;
12585;SDS011;6358;50.760;0.282;2023-07-08T03:09:52;5.78;;;3.63;;
12585;SDS011;6358;50.760;0.282;2023-07-08T03:12:18;5.43;;;3.72;;
12585;SDS011;6358;50.760;0.282;2023-07-08T03:14:44;4.45;;;3.38;;
12585;SDS011;6358;50.760;0.282;2023-07-08T03:17:10;3.88;;;3.45;;
12585;SDS011;6358;50.760;0.282;2023-07-08T03:19:36;3.85;;;3.25;;
12585;SDS011;6358;50.760;0.282;2023-07-08T03:22:02;4.43;;;3.20;;
12585;SDS011;6358;50.760;0.282;2023-07-08T03:24:30;4.50;;;3.30;;
12585;SDS011;6358;50.760;0.282;2023-07-08T03:26:56;4.65;;;3.20;;
12585;SDS011;6358;50.760;0.282;2023-07-08T03:29:25;3.58;;;3.28;;
12585;SDS011;6358;50.760;0.282;2023-07-08T03:31:51;4.20;;;3.33;;
12585;SDS011;6358;50.760;0.282;2023-07-08T03:34:17;6.13;;;3.75;;
12585;SDS011;6358;50.760;0.282;2023-07-08T03:36:44;5.13;;;3.70;;
12585;SDS011;6358;50.760;0.282;2023-07-08T03:39:14;3.95;;;3.42;;
12585;SDS011;6358;50.760;0.282;2023-07-08T03:41:40;4.03;;;3.45;;
12585;SDS011;6358;50.760;0.282;2023-07-08T03:44:06;4.22;;;3.40;;
12585;SDS011;6358;50.760;0.282;2023-07-08T03:46:32;4.18;;;3.47;;
12585;SDS011;6358;50.760;0.282;2023-07-08T03:48:58;4.88;;;3.38;;
12585;SDS011;6358;50.760;0.282;2023-07-08T03:51:29;5.57;;;3.63;;
12585;SDS011;6358;50.760;0.282;2023-07-08T03:53:56;3.90;;;3.38;;
12585;SDS011;6358;50.760;0.282;2023-07-08T03:56:22;5.00;;;3.22;;
12585;SDS011;6358;50.760;0.282;2023-07-08T03:58:49;4.68;;;3.30;;
12585;SDS011;6358;50.760;0.282;2023-07-08T04:01:15;5.38;;;3.40;;
12585;SDS011;6358;50.760;0.282;2023-07-08T04:03:42;3.38;;;3.08;;
12585;SDS011;6358;50.760;0.282;2023-07-08T04:06:08;4.85;;;3.45;;
12585;SDS011;6358;50.760;0.282;2023-07-08T04:08:34;5.50;;;3.40;;
12585;SDS011;6358;50.760;0.282;2023-07-08T04:11:00;4.97;;;3.47;;
12585;SDS011;6358;50.760;0.282;2023-07-08T04:13:27;4.28;;;3.53;;
12585;SDS011;6358;50.760;0.282;2023-07-08T04:16:02;3.80;;;3.40;;
12585;SDS011;6358;50.760;0.282;2023-07-08T04:18:28;5.88;;;3.42;;
12585;SDS011;6358;50.760;0.282;2023-07-08T04:20:54;5.25;;;3.35;;
12585;SDS011;6358;50.760;0.282;2023-07-08T04:23:23;5.88;;;3.63;;
12585;SDS011;6358;50.760;0.282;2023-07-08T04:25:49;5.03;;;3.50;;
12585;SDS011;6358;50.760;0.282;2023-07-08T04:28:16;8.90;;;3.70;;
12585;SDS011;6358;50.760;0.282;2023-07-08T04:30:42;4.80;;;3.00;;
12585;SDS011;6358;50.760;0.282;2023-07-08T04:33:12;8.23;;;3.83;;
12585;SDS011;6358;50.760;0.282;2023-07-08T04:35:39;4.40;;;3.35;;
12585;SDS011;6358;50.760;0.282;2023-07-08T04:38:06;5.95;;;3.50;;
12585;SDS011;6358;50.760;0.282;2023-07-08T04:40:35;4.60;;;3.50;;
12585;SDS011;6358;50.760;0.282;2023-07-08T04:43:07;4.50;;;3.42;;
12585;SDS011;6358;50.760;0.282;2023-07-08T04:45:35;3.40;;;3.08;;
12585;SDS011;6358;50.760;0.282;2023-07-08T04:48:02;4.38;;;3.47;;
12585;SDS011;6358;50.760;0.282;2023-07-08T04:50:34;4.82;;;3.72;;
12585;SDS011;6358;50.760;0.282;2023-07-08T04:53:00;6.22;;;3.30;;
12585;SDS011;6358;50.760;0.282;2023-07-08T04:55:27;4.07;;;3.47;;
12585;SDS011;6358;50.760;0.282;2023-07-08T04:57:53;4.60;;;3.42;;
12585;SDS011;6358;50.760;0.282;2023-07-08T05:00:19;5.88;;;3.70;;
12585;SDS011;6358;50.760;0.282;2023-07-08T05:02:45;5.43;;;3.35;;
12585;SDS011;6358;50.760;0.282;2023-07-08T05:05:11;6.63;;;3.25;;
12585;SDS011;6358;50.760;0.282;2023-07-08T05:07:37;4.22;;;3.25;;
12585;SDS011;6358;50.760;0.282;2023-07-08T05:10:04;4.78;;;3.50;;
12585;SDS011;6358;50.760;0.282;2023-07-08T05:12:30;4.28;;;3.17;;
12585;SDS011;6358;50.760;0.282;2023-07-08T05:14:56;3.28;;;3.08;;
12585;SDS011;6358;50.760;0.282;2023-07-08T05:17:22;6.03;;;3.45;;
12585;SDS011;6358;50.760;0.282;2023-07-08T05:19:50;5.18;;;3.58;;
12585;SDS011;6358;50.760;0.282;2023-07-08T05:22:16;6.00;;;3.60;;
12585;SDS011;6358;50.760;0.282;2023-07-08T05:24:43;4.93;;;3.67;;
12585;SDS011;6358;50.760;0.282;2023-07-08T05:27:09;6.07;;;3.60;;
12585;SDS011;6358;50.760;0.282;2023-07-08T05:29:38;6.43;;;3.65;;
12585;SDS011;6358;50.760;0.282;2023-07-08T05:32:04;5.97;;;3.90;;
12585;SDS011;6358;50.760;0.282;2023-07-08T05:34:30;11.20;;;4.55;;
12585;SDS011;6358;50.760;0.282;2023-07-08T05:36:57;5.75;;;3.70;;
12585;SDS011;6358;50.760;0.282;2023-07-08T05:39:23;6.65;;;3.65;;
12585;SDS011;6358;50.760;0.282;2023-07-08T05:41:49;8.38;;;3.80;;
12585;SDS011;6358;50.760;0.282;2023-07-08T05:44:15;6.13;;;3.75;;
12585;SDS011;6358;50.760;0.282;2023-07-08T05:46:41;5.53;;;3.15;;
12585;SDS011;6358;50.760;0.282;2023-07-08T05:49:07;6.00;;;3.75;;
12585;SDS011;6358;50.760;0.282;2023-07-08T05:51:34;5.25;;;3.47;;
12585;SDS011;6358;50.760;0.282;2023-07-08T05:54:00;6.22;;;3.30;;
12585;SDS011;6358;50.760;0.282;2023-07-08T05:56:26;6.88;;;3.38;;
12585;SDS011;6358;50.760;0.282;2023-07-08T05:58:52;4.82;;;3.30;;
12585;SDS011;6358;50.760;0.282;2023-07-08T06:01:18;6.38;;;3.40;;
12585;SDS011;6358;50.760;0.282;2023-07-08T06:03:44;6.15;;;3.33;;
12585;SDS011;6358;50.760;0.282;2023-07-08T06:06:10;6.10;;;3.00;;
12585;SDS011;6358;50.760;0.282;2023-07-08T06:08:36;3.88;;;2.80;;
12585;SDS011;6358;50.760;0.282;2023-07-08T06:11:02;5.85;;;3.10;;
12585;SDS011;6358;50.760;0.282;2023-07-08T06:13:29;6.40;;;3.40;;
12585;SDS011;6358;50.760;0.282;2023-07-08T06:15:55;4.38;;;3.17;;
12585;SDS011;6358;50.760;0.282;2023-07-08T06:18:21;3.70;;;2.90;;
12585;SDS011;6358;50.760;0.282;2023-07-08T06:20:51;6.28;;;3.22;;
12585;SDS011;6358;50.760;0.282;2023-07-08T06:23:17;3.22;;;2.92;;
12585;SDS011;6358;50.760;0.282;2023-07-08T06:25:43;6.55;;;3.30;;
12585;SDS011;6358;50.760;0.282;2023-07-08T06:28:09;5.18;;;2.88;;
12585;SDS011;6358;50.760;0.282;2023-07-08T06:30:35;5.63;;;3.33;;
12585;SDS011;6358;50.760;0.282;2023-07-08T06:33:02;4.95;;;3.25;;
12585;SDS011;6358;50.760;0.282;2023-07-08T06:35:29;4.95;;;2.97;;
12585;SDS011;6358;50.760;0.282;2023-07-08T06:37:55;3.95;;;2.55;;
12585;SDS011;6358;50.760;0.282;2023-07-08T06:40:21;4.43;;;2.83;;
12585;SDS011;6358;50.760;0.282;2023-07-08T06:42:47;4.30;;;2.80;;
12585;SDS011;6358;50.760;0.282;2023-07-08T06:45:13;4.97;;;3.60;;
12585;SDS011;6358;50.760;0.282;2023-07-08T06:47:39;5.60;;;3.28;;
12585;SDS011;6358;50.760;0.282;2023-07-08T06:50:06;5.15;;;3.30;;
12585;SDS011;6358;50.760;0.282;2023-07-08T06:52:32;3.97;;;2.95;;
12585;SDS011;6358;50.760;0.282;2023-07-08T06:55:03;4.70;;;2.80;;
12585;SDS011;6358;50.760;0.282;2023-07-08T06:57:29;5.38;;;3.30;;
12585;SDS011;6358;50.760;0.282;2023-07-08T06:59:55;4.40;;;3.28;;
12585;SDS011;6358;50.760;0.282;2023-07-08T07:02:21;5.53;;;3.10;;
12585;SDS011;6358;50.760;0.282;2023-07-08T07:04:47;4.90;;;3.17;;
12585;SDS011;6358;50.760;0.282;2023-07-08T07:07:14;4.07;;;2.80;;
12585;SDS011;6358;50.760;0.282;2023-07-08T07:09:40;4.55;;;2.60;;
12585;SDS011;6358;50.760;0.282;2023-07-08T07:12:06;4.63;;;2.90;;
12585;SDS011;6358;50.760;0.282;2023-07-08T07:14:32;4.57;;;3.10;;
12585;SDS011;6358;50.760;0.282;2023-07-08T07:16:59;5.38;;;3.00;;
12585;SDS011;6358;50.760;0.282;2023-07-08T07:19:25;4.70;;;2.92;;
12585;SDS011;6358;50.760;0.282;2023-07-08T07:21:51;4.35;;;3.20;;
12585;SDS011;6358;50.760;0.282;2023-07-08T07:24:18;3.75;;;2.63;;
12585;SDS011;6358;50.760;0.282;2023-07-08T07:26:44;6.70;;;2.95;;
12585;SDS011;6358;50.760;0.282;2023-07-08T07:29:10;3.53;;;2.83;;
12585;SDS011;6358;50.760;0.282;2023-07-08T07:31:36;4.18;;;3.00;;
12585;SDS011;6358;50.760;0.282;2023-07-08T07:34:05;4.35;;;2.83;;
12585;SDS011;6358;50.760;0.282;2023-07-08T07:36:31;5.28;;;3.20;;
12585;SDS011;6358;50.760;0.282;2023-07-08T07:38:57;4.95;;;2.90;;
12585;SDS011;6358;50.760;0.282;2023-07-08T07:41:23;4.40;;;3.05;;
12585;SDS011;6358;50.760;0.282;2023-07-08T07:43:49;3.92;;;3.10;;
12585;SDS011;6358;50.760;0.282;2023-07-08T07:46:15;3.47;;;2.92;;
12585;SDS011;6358;50.760;0.282;2023-07-08T07:48:41;3.75;;;2.72;;
12585;SDS011;6358;50.760;0.282;2023-07-08T07:51:08;6.47;;;3.10;;
12585;SDS011;6358;50.760;0.282;2023-07-08T07:53:36;4.22;;;2.80;;
12585;SDS011;6358;50.760;0.282;2023-07-08T07:56:02;6.13;;;2.78;;
12585;SDS011;6358;50.760;0.282;2023-07-08T07:58:29;8.80;;;3.05;;
12585;SDS011;6358;50.760;0.282;2023-07-08T08:00:55;3.80;;;3.03;;
12585;SDS011;6358;50.760;0.282;2023-07-08T08:03:22;5.63;;;3.05;;
12585;SDS011;6358;50.760;0.282;2023-07-08T08:05:48;6.15;;;3.15;;
12585;SDS011;6358;50.760;0.282;2023-07-08T08:08:15;6.95;;;3.72;;
12585;SDS011;6358;50.760;0.282;2023-07-08T08:10:42;8.50;;;5.40;;
12585;SDS011;6358;50.760;0.282;2023-07-08T08:13:08;14.50;;;6.72;;
12585;SDS011;6358;50.760;0.282;2023-07-08T08:15:35;14.38;;;7.78;;
12585;SDS011;6358;50.760;0.282;2023-07-08T08:18:01;14.40;;;10.20;;
12585;SDS011;6358;50.760;0.282;2023-07-08T08:20:28;16.60;;;13.25;;
12585;SDS011;6358;50.760;0.282;2023-07-08T08:22:54;14.15;;;11.55;;
12585;SDS011;6358;50.760;0.282;2023-07-08T08:25:21;8.05;;;7.15;;
12585;SDS011;6358;50.760;0.282;2023-07-08T08:27:47;10.60;;;5.65;;
12585;SDS011;6358;50.760;0.282;2023-07-08T08:30:14;8.07;;;5.85;;
12585;SDS011;6358;50.760;0.282;2023-07-08T08:32:40;7.57;;;5.13;;
12585;SDS011;6358;50.760;0.282;2023-07-08T08:35:06;9.20;;;6.03;;
12585;SDS011;6358;50.760;0.282;2023-07-08T08:37:32;8.30;;;5.13;;
12585;SDS011;6358;50.760;0.282;2023-07-08T08:39:58;6.85;;;4.70;;
12585;SDS011;6358;50.760;0.282;2023-07-08T08:42:32;6.07;;;4.38;;
12585;SDS011;6358;50.760;0.282;2023-07-08T08:44:59;7.80;;;4.00;;
12585;SDS011;6358;50.760;0.282;2023-07-08T08:47:37;4.72;;;3.97;;
12585;SDS011;6358;50.760;0.282;2023-07-08T08:52:42;4.60;;;3.80;;
12585;SDS011;6358;50.760;0.282;2023-07-08T08:55:11;4.60;;;4.03;;
12585;SDS011;6358;50.760;0.282;2023-07-08T08:57:40;6.75;;;4.05;;
12585;SDS011;6358;50.760;0.282;2023-07-08T09:00:08;5.13;;;4.18;;
12585;SDS011;6358;50.760;0.282;2023-07-08T09:05:04;5.30;;;3.60;;
12585;SDS011;6358;50.760;0.282;2023-07-08T09:07:41;4.45;;;3.65;;
12585;SDS011;6358;50.760;0.282;2023-07-08T09:10:15;5.25;;;3.40;;
12585;SDS011;6358;50.760;0.282;2023-07-08T09:12:45;4.35;;;3.50;;
12585;SDS011;6358;50.760;0.282;2023-07-08T09:15:12;5.78;;;3.63;;
12585;SDS011;6358;50.760;0.282;2023-07-08T09:17:38;3.55;;;3.15;;
12585;SDS011;6358;50.760;0.282;2023-07-08T09:22:47;4.20;;;3.28;;
12585;SDS011;6358;50.760;0.282;2023-07-08T09:27:48;3.35;;;3.00;;
12585;SDS011;6358;50.760;0.282;2023-07-08T09:30:15;4.40;;;3.30;;
12585;SDS011;6358;50.760;0.282;2023-07-08T09:32:42;3.50;;;3.20;;
12585;SDS011;6358;50.760;0.282;2023-07-08T09:35:09;3.88;;;3.35;;
12585;SDS011;6358;50.760;0.282;2023-07-08T09:37:44;5.25;;;3.13;;
12585;SDS011;6358;50.760;0.282;2023-07-08T09:40:22;3.40;;;3.10;;
12585;SDS011;6358;50.760;0.282;2023-07-08T09:42:50;5.93;;;3.20;;
12585;SDS011;6358;50.760;0.282;2023-07-08T09:45:20;4.45;;;3.28;;
12585;SDS011;6358;50.760;0.282;2023-07-08T09:47:47;5.60;;;3.00;;
12585;SDS011;6358;50.760;0.282;2023-07-08T09:50:20;4.65;;;3.33;;
12585;SDS011;6358;50.760;0.282;2023-07-08T09:52:48;4.47;;;3.10;;
12585;SDS011;6358;50.760;0.282;2023-07-08T09:55:14;5.07;;;2.80;;
12585;SDS011;6358;50.760;0.282;2023-07-08T09:57:40;3.78;;;3.00;;
12585;SDS011;6358;50.760;0.282;2023-07-08T10:00:08;3.28;;;2.97;;
12585;SDS011;6358;50.760;0.282;2023-07-08T10:05:17;4.38;;;2.80;;
12585;SDS011;6358;50.760;0.282;2023-07-08T10:07:45;4.43;;;2.83;;
12585;SDS011;6358;50.760;0.282;2023-07-08T10:10:13;3.55;;;2.83;;
12585;SDS011;6358;50.760;0.282;2023-07-08T10:12:42;2.83;;;2.53;;
12585;SDS011;6358;50.760;0.282;2023-07-08T10:15:22;5.78;;;3.00;;
12585;SDS011;6358;50.760;0.282;2023-07-08T10:17:50;3.22;;;2.63;;
12585;SDS011;6358;50.760;0.282;2023-07-08T10:20:16;6.95;;;2.90;;
12585;SDS011;6358;50.760;0.282;2023-07-08T10:22:45;3.83;;;2.60;;
12585;SDS011;6358;50.760;0.282;2023-07-08T10:30:24;8.85;;;3.40;;
12585;SDS011;6358;50.760;0.282;2023-07-08T10:35:33;6.18;;;3.60;;
12585;SDS011;6358;50.760;0.282;2023-07-08T10:43:08;6.25;;;2.90;;
12585;SDS011;6358;50.760;0.282;2023-07-08T10:48:27;5.05;;;3.10;;
12585;SDS011;6358;50.760;0.282;2023-07-08T10:51:13;4.82;;;2.70;;
12585;SDS011;6358;50.760;0.282;2023-07-08T10:56:23;5.55;;;3.05;;
12585;SDS011;6358;50.760;0.282;2023-07-08T10:59:06;3.38;;;2.80;;
12585;SDS011;6358;50.760;0.282;2023-07-08T11:02:00;3.22;;;2.90;;
12585;SDS011;6358;50.760;0.282;2023-07-08T11:06:52;3.75;;;2.83;;
12585;SDS011;6358;50.760;0.282;2023-07-08T11:09:32;3.42;;;2.80;;
12585;SDS011;6358;50.760;0.282;2023-07-08T11:12:08;3.53;;;2.67;;
12585;SDS011;6358;50.760;0.282;2023-07-08T11:14:42;3.17;;;2.75;;
12585;SDS011;6358;50.760;0.282;2023-07-08T11:17:17;3.83;;;2.70;;
12585;SDS011;6358;50.760;0.282;2023-07-08T11:19:49;6.53;;;3.20;;
12585;SDS011;6358;50.760;0.282;2023-07-08T11:22:16;6.80;;;3.10;;
12585;SDS011;6358;50.760;0.282;2023-07-08T11:24:45;3.90;;;2.67;;
12585;SDS011;6358;50.760;0.282;2023-07-08T11:29:42;4.00;;;2.75;;
12585;SDS011;6358;50.760;0.282;2023-07-08T11:32:11;3.03;;;2.60;;
12585;SDS011;6358;50.760;0.282;2023-07-08T11:34:38;3.50;;;2.65;;
12585;SDS011;6358;50.760;0.282;2023-07-08T11:37:05;4.68;;;2.80;;
12585;SDS011;6358;50.760;0.282;2023-07-08T11:42:11;3.40;;;2.67;;
12585;SDS011;6358;50.760;0.282;2023-07-08T11:44:43;2.95;;;2.65;;
12585;SDS011;6358;50.760;0.282;2023-07-08T11:47:55;3.72;;;2.53;;
12585;SDS011;6358;50.760;0.282;2023-07-08T11:50:01;3.30;;;2.70;;
12585;SDS011;6358;50.760;0.282;2023-07-08T11:52:28;3.50;;;2.70;;
12585;SDS011;6358;50.760;0.282;2023-07-08T11:55:12;5.50;;;3.20;;
12585;SDS011;6358;50.760;0.282;2023-07-08T11:57:41;6.38;;;3.28;;
12585;SDS011;6358;50.760;0.282;2023-07-08T12:00:16;3.30;;;3.00;;
12585;SDS011;6358;50.760;0.282;2023-07-08T12:02:55;3.75;;;2.83;;
12585;SDS011;6358;50.760;0.282;2023-07-08T12:05:31;4.25;;;2.90;;
12585;SDS011;6358;50.760;0.282;2023-07-08T12:07:58;3.63;;;3.00;;
12585;SDS011;6358;50.760;0.282;2023-07-08T12:10:33;6.22;;;3.40;;
12585;SDS011;6358;50.760;0.282;2023-07-08T12:13:00;10.27;;;4.20;;
12585;SDS011;6358;50.760;0.282;2023-07-08T12:15:28;5.70;;;3.88;;
12585;SDS011;6358;50.760;0.282;2023-07-08T12:17:58;5.82;;;3.65;;
12585;SDS011;6358;50.760;0.282;2023-07-08T12:20:32;8.60;;;4.03;;
12585;SDS011;6358;50.760;0.282;2023-07-08T12:22:59;7.40;;;3.42;;
12585;SDS011;6358;50.760;0.282;2023-07-08T12:25:29;6.05;;;3.30;;
12585;SDS011;6358;50.760;0.282;2023-07-08T12:27:56;6.22;;;2.92;;
12585;SDS011;6358;50.760;0.282;2023-07-08T12:30:22;5.30;;;2.70;;
12585;SDS011;6358;50.760;0.282;2023-07-08T12:32:48;3.47;;;2.78;;
12585;SDS011;6358;50.760;0.282;2023-07-08T12:35:25;3.20;;;2.38;;
12585;SDS011;6358;50.760;0.282;2023-07-08T12:37:52;4.10;;;2.72;;
12585;SDS011;6358;50.760;0.282;2023-07-08T12:40:20;3.65;;;2.50;;
12585;SDS011;6358;50.760;0.282;2023-07-08T12:42:47;3.03;;;2.72;;
12585;SDS011;6358;50.760;0.282;2023-07-08T12:45:17;3.10;;;2.80;;
12585;SDS011;6358;50.760;0.282;2023-07-08T12:47:44;4.43;;;2.60;;
12585;SDS011;6358;50.760;0.282;2023-07-08T12:50:11;3.10;;;2.50;;
12585;SDS011;6358;50.760;0.282;2023-07-08T12:52:38;3.90;;;2.75;;
12585;SDS011;6358;50.760;0.282;2023-07-08T12:55:05;3.05;;;2.70;;
12585;SDS011;6358;50.760;0.282;2023-07-08T12:57:31;3.10;;;2.70;;
12585;SDS011;6358;50.760;0.282;2023-07-08T12:59:57;3.42;;;2.60;;
12585;SDS011;6358;50.760;0.282;2023-07-08T13:02:24;2.88;;;2.58;;
12585;SDS011;6358;50.760;0.282;2023-07-08T13:04:56;2.75;;;2.42;;
12585;SDS011;6358;50.760;0.282;2023-07-08T13:07:28;2.67;;;2.47;;
12585;SDS011;6358;50.760;0.282;2023-07-08T13:09:56;3.72;;;2.63;;
12585;SDS011;6358;50.760;0.282;2023-07-08T13:12:22;2.78;;;2.55;;
12585;SDS011;6358;50.760;0.282;2023-07-08T13:14:50;4.40;;;2.47;;
12585;SDS011;6358;50.760;0.282;2023-07-08T13:17:17;2.85;;;2.30;;
12585;SDS011;6358;50.760;0.282;2023-07-08T13:19:43;2.75;;;2.55;;
12585;SDS011;6358;50.760;0.282;2023-07-08T13:22:17;2.60;;;2.40;;
12585;SDS011;6358;50.760;0.282;2023-07-08T13:24:44;4.00;;;2.70;;
12585;SDS011;6358;50.760;0.282;2023-07-08T13:27:31;2.90;;;2.60;;
12585;SDS011;6358;50.760;0.282;2023-07-08T13:29:57;4.07;;;2.63;;
12585;SDS011;6358;50.760;0.282;2023-07-08T13:32:30;3.03;;;2.72;;
12585;SDS011;6358;50.760;0.282;2023-07-08T13:34:57;3.08;;;2.60;;
12585;SDS011;6358;50.760;0.282;2023-07-08T13:37:23;2.97;;;2.50;;
12585;SDS011;6358;50.760;0.282;2023-07-08T13:39:51;3.28;;;2.50;;
12585;SDS011;6358;50.760;0.282;2023-07-08T13:42:18;2.75;;;2.38;;
12585;SDS011;6358;50.760;0.282;2023-07-08T13:44:44;2.65;;;2.45;;
12585;SDS011;6358;50.760;0.282;2023-07-08T13:47:22;3.53;;;2.60;;
12585;SDS011;6358;50.760;0.282;2023-07-08T13:49:52;3.10;;;2.80;;
12585;SDS011;6358;50.760;0.282;2023-07-08T13:52:20;2.92;;;2.47;;
12585;SDS011;6358;50.760;0.282;2023-07-08T13:54:51;3.10;;;2.67;;
12585;SDS011;6358;50.760;0.282;2023-07-08T13:57:20;2.78;;;2.50;;
12585;SDS011;6358;50.760;0.282;2023-07-08T13:59:47;3.08;;;2.78;;
12585;SDS011;6358;50.760;0.282;2023-07-08T14:02:15;2.95;;;2.67;;
12585;SDS011;6358;50.760;0.282;2023-07-08T14:04:41;4.03;;;3.00;;
12585;SDS011;6358;50.760;0.282;2023-07-08T14:07:23;5.93;;;2.97;;
12585;SDS011;6358;50.760;0.282;2023-07-08T14:09:49;3.33;;;2.70;;
12585;SDS011;6358;50.760;0.282;2023-07-08T14:12:16;3.25;;;2.78;;
12585;SDS011;6358;50.760;0.282;2023-07-08T14:14:42;3.03;;;2.50;;
12585;SDS011;6358;50.760;0.282;2023-07-08T14:17:09;2.85;;;2.65;;
12585;SDS011;6358;50.760;0.282;2023-07-08T14:19:37;3.63;;;2.65;;
12585;SDS011;6358;50.760;0.282;2023-07-08T14:22:24;3.20;;;2.70;;
12585;SDS011;6358;50.760;0.282;2023-07-08T14:24:49;4.43;;;2.90;;
12585;SDS011;6358;50.760;0.282;2023-07-08T14:27:15;3.15;;;2.85;;
12585;SDS011;6358;50.760;0.282;2023-07-08T14:29:43;4.25;;;2.78;;
12585;SDS011;6358;50.760;0.282;2023-07-08T14:32:14;3.45;;;3.00;;
12585;SDS011;6358;50.760;0.282;2023-07-08T14:34:41;3.13;;;2.88;;
12585;SDS011;6358;50.760;0.282;2023-07-08T14:37:14;4.22;;;3.03;;
12585;SDS011;6358;50.760;0.282;2023-07-08T14:39:40;3.67;;;2.97;;
12585;SDS011;6358;50.760;0.282;2023-07-08T14:42:13;4.90;;;2.78;;
12585;SDS011;6358;50.760;0.282;2023-07-08T14:44:41;4.30;;;3.10;;
12585;SDS011;6358;50.760;0.282;2023-07-08T14:47:11;5.03;;;3.20;;
12585;SDS011;6358;50.760;0.282;2023-07-08T14:49:40;4.57;;;3.40;;
12585;SDS011;6358;50.760;0.282;2023-07-08T14:52:06;8.73;;;3.40;;
12585;SDS011;6358;50.760;0.282;2023-07-08T14:54:32;4.85;;;2.83;;
12585;SDS011;6358;50.760;0.282;2023-07-08T14:56:59;5.03;;;3.17;;
12585;SDS011;6358;50.760;0.282;2023-07-08T14:59:26;4.20;;;3.10;;
12585;SDS011;6358;50.760;0.282;2023-07-08T15:01:54;4.45;;;3.03;;
12585;SDS011;6358;50.760;0.282;2023-07-08T15:04:21;5.53;;;3.35;;
12585;SDS011;6358;50.760;0.282;2023-07-08T15:06:47;3.25;;;2.90;;
12585;SDS011;6358;50.760;0.282;2023-07-08T15:09:15;5.22;;;3.40;;
12585;SDS011;6358;50.760;0.282;2023-07-08T15:11:43;3.97;;;2.88;;
12585;SDS011;6358;50.760;0.282;2023-07-08T15:14:11;4.97;;;2.90;;
12585;SDS011;6358;50.760;0.282;2023-07-08T15:16:41;4.95;;;3.30;;
12585;SDS011;6358;50.760;0.282;2023-07-08T15:19:11;5.03;;;2.97;;
12585;SDS011;6358;50.760;0.282;2023-07-08T15:21:38;4.63;;;2.83;;
12585;SDS011;6358;50.760;0.282;2023-07-08T15:24:07;4.03;;;2.90;;
12585;SDS011;6358;50.760;0.282;2023-07-08T15:26:34;5.35;;;3.17;;
12585;SDS011;6358;50.760;0.282;2023-07-08T15:29:00;4.38;;;3.03;;
12585;SDS011;6358;50.760;0.282;2023-07-08T15:31:27;4.85;;;3.35;;
12585;SDS011;6358;50.760;0.282;2023-07-08T15:33:54;6.25;;;3.42;;
12585;SDS011;6358;50.760;0.282;2023-07-08T15:36:20;5.63;;;3.28;;
12585;SDS011;6358;50.760;0.282;2023-07-08T15:38:46;4.50;;;3.25;;
12585;SDS011;6358;50.760;0.282;2023-07-08T15:43:44;5.82;;;3.25;;
12585;SDS011;6358;50.760;0.282;2023-07-08T15:46:11;4.90;;;3.35;;
12585;SDS011;6358;50.760;0.282;2023-07-08T15:48:37;5.93;;;3.30;;